createdAt,value
2023-03-30T00:00:15.300Z,19.23
2023-03-30T00:02:47.013Z,16.60
2023-03-30T00:05:19.207Z,16.07
2023-03-30T00:07:51.204Z,12.30
2023-03-30T00:10:22.413Z,16.47
2023-03-30T00:12:53.423Z,12.67
2023-03-30T00:15:25.047Z,14.63
2023-03-30T00:17:55.740Z,19.73
2023-03-30T00:20:26.432Z,19.40
2023-03-30T00:22:57.166Z,23.47
2023-03-30T00:25:28.006Z,15.57
2023-03-30T00:27:58.676Z,12.37
2023-03-30T00:30:29.398Z,13.67
2023-03-30T00:33:00.185Z,16.40
2023-03-30T00:35:31.646Z,21.07
2023-03-30T00:38:03.459Z,18.57
2023-03-30T00:40:35.743Z,15.77
2023-03-30T00:43:09.958Z,16.43
2023-03-30T00:45:41.240Z,19.00
2023-03-30T00:48:15.927Z,13.07
2023-03-30T00:50:48.885Z,9.47
2023-03-30T00:53:22.966Z,14.20
2023-03-30T00:55:55.507Z,11.53
2023-03-30T00:58:27.375Z,12.67
2023-03-30T01:00:59.579Z,8.73
2023-03-30T01:03:33.523Z,15.20
2023-03-30T01:06:07.544Z,16.90
2023-03-30T01:08:41.259Z,14.90
2023-03-30T01:11:12.459Z,20.83
2023-03-30T01:13:46.446Z,10.43
2023-03-30T01:16:37.218Z,14.37
2023-03-30T01:19:16.674Z,13.43
2023-03-30T01:22:04.834Z,10.93
2023-03-30T01:25:12.192Z,16.77
2023-03-30T01:31:29.391Z,15.37
2023-03-30T01:34:36.231Z,15.10
2023-03-30T01:37:38.081Z,9.73
2023-03-30T01:40:13.384Z,10.63
2023-03-30T01:42:48.673Z,15.87
2023-03-30T01:45:23.062Z,12.87
2023-03-30T01:47:57.376Z,15.03
2023-03-30T01:50:30.485Z,14.73
2023-03-30T01:53:04.940Z,12.57
2023-03-30T01:55:39.413Z,11.70
2023-03-30T01:58:12.996Z,12.43
2023-03-30T02:00:48.864Z,9.95
2023-03-30T02:03:23.714Z,16.43
2023-03-30T02:05:57.651Z,11.60
2023-03-30T02:08:32.822Z,9.73
2023-03-30T02:11:04.089Z,11.10
2023-03-30T02:13:37.636Z,12.03
2023-03-30T02:16:12.254Z,10.03
2023-03-30T02:18:43.696Z,9.80
2023-03-30T02:21:14.710Z,8.73
2023-03-30T02:23:47.873Z,10.27
2023-03-30T02:26:18.661Z,9.37
2023-03-30T02:28:49.770Z,12.23
2023-03-30T02:31:20.695Z,9.63
2023-03-30T02:34:00.812Z,14.37
2023-03-30T02:36:40.882Z,8.67
2023-03-30T02:39:19.677Z,9.30
2023-03-30T02:42:31.519Z,9.70
2023-03-30T02:45:09.241Z,9.40
2023-03-30T02:47:43.019Z,9.37
2023-03-30T02:50:18.286Z,12.90
2023-03-30T02:52:54.638Z,9.57
2023-03-30T02:55:29.394Z,9.03
2023-03-30T02:58:07.596Z,9.60
2023-03-30T03:00:43.417Z,7.67
2023-03-30T03:03:18.006Z,12.93
2023-03-30T03:05:49.485Z,12.27
2023-03-30T03:08:23.776Z,7.43
2023-03-30T03:10:54.688Z,8.17
2023-03-30T03:13:25.895Z,12.13
2023-03-30T03:15:57.090Z,10.10
2023-03-30T03:18:28.434Z,7.53
2023-03-30T03:21:17.961Z,8.10
2023-03-30T03:23:49.167Z,10.87
2023-03-30T03:26:20.286Z,13.53
2023-03-30T03:28:51.267Z,6.47
2023-03-30T03:31:24.533Z,8.93
2023-03-30T03:33:55.528Z,9.83
2023-03-30T03:36:26.719Z,8.27
2023-03-30T03:38:57.801Z,11.70
2023-03-30T03:41:28.631Z,9.27
2023-03-30T03:43:59.731Z,10.83
2023-03-30T03:46:49.386Z,7.50
2023-03-30T03:49:20.703Z,6.40
2023-03-30T03:51:51.662Z,6.90
2023-03-30T03:54:22.632Z,7.93
2023-03-30T03:57:12.157Z,6.90
2023-03-30T03:59:43.164Z,10.13
2023-03-30T04:02:14.167Z,10.37
2023-03-30T04:04:45.479Z,12.37
2023-03-30T04:07:16.478Z,11.43
2023-03-30T04:09:47.366Z,5.60
2023-03-30T04:12:20.395Z,9.63
2023-03-30T04:17:28.542Z,11.47
2023-03-30T04:19:59.774Z,10.17
2023-03-30T04:22:32.093Z,13.57
2023-03-30T04:25:04.754Z,10.40
2023-03-30T04:27:37.329Z,11.87
2023-03-30T04:30:10.186Z,12.23
2023-03-30T04:32:41.582Z,4.57
2023-03-30T04:35:14.442Z,5.87
2023-03-30T04:37:46.201Z,6.03
2023-03-30T04:40:17.280Z,8.53
2023-03-30T04:42:50.080Z,6.90
2023-03-30T04:45:21.803Z,9.17
2023-03-30T04:47:52.869Z,4.53
2023-03-30T04:50:23.899Z,6.53
2023-03-30T04:52:54.833Z,7.43
2023-03-30T04:55:27.085Z,11.67
2023-03-30T04:57:58.407Z,7.27
2023-03-30T05:00:29.655Z,4.03
2023-03-30T05:03:00.986Z,7.97
2023-03-30T05:05:50.467Z,7.60
2023-03-30T05:08:21.602Z,8.97
2023-03-30T05:10:52.704Z,5.77
2023-03-30T05:13:23.750Z,8.87
2023-03-30T05:15:56.586Z,5.00
2023-03-30T05:21:06.777Z,9.53
2023-03-30T05:23:39.814Z,7.70
2023-03-30T05:26:29.193Z,3.63
2023-03-30T05:29:00.594Z,6.83
2023-03-30T05:31:31.843Z,5.53
2023-03-30T05:34:03.070Z,5.47
2023-03-30T05:36:35.476Z,11.30
2023-03-30T05:39:07.806Z,7.73
2023-03-30T05:41:38.949Z,6.87
2023-03-30T05:44:10.265Z,5.90
2023-03-30T05:46:41.365Z,6.50
2023-03-30T05:51:51.186Z,7.10
2023-03-30T05:54:22.294Z,5.33
2023-03-30T05:56:53.385Z,7.50
2023-03-30T05:59:24.693Z,4.50
2023-03-30T06:01:56.232Z,7.97
2023-03-30T06:04:27.956Z,5.13
2023-03-30T06:06:59.166Z,5.07
2023-03-30T06:09:30.309Z,6.20
2023-03-30T06:12:01.586Z,4.77
2023-03-30T06:14:33.127Z,5.73
2023-03-30T06:17:04.147Z,6.43
2023-03-30T06:19:35.231Z,6.27
2023-03-30T06:22:06.341Z,5.00
2023-03-30T06:24:37.423Z,6.60
2023-03-30T06:27:08.710Z,8.37
2023-03-30T06:29:39.945Z,10.23
2023-03-30T06:32:11.303Z,5.17
2023-03-30T06:34:42.445Z,5.23
2023-03-30T06:37:13.371Z,6.10
2023-03-30T06:39:46.200Z,15.20
2023-03-30T06:42:18.405Z,9.50
2023-03-30T06:44:50.001Z,12.17
2023-03-30T06:47:22.576Z,10.93
2023-03-30T06:49:53.903Z,5.90
2023-03-30T06:52:24.946Z,5.87
2023-03-30T06:54:56.026Z,5.27
2023-03-30T06:57:27.157Z,7.20
2023-03-30T06:59:58.326Z,5.37
2023-03-30T07:02:30.314Z,7.47
2023-03-30T07:05:01.422Z,4.43
2023-03-30T07:07:32.545Z,4.93
2023-03-30T07:10:06.149Z,4.43
2023-03-30T07:12:37.472Z,6.27
2023-03-30T07:15:10.908Z,4.43
2023-03-30T07:17:42.181Z,5.90
2023-03-30T07:20:16.266Z,6.73
2023-03-30T07:22:47.324Z,5.10
2023-03-30T07:25:19.180Z,6.23
2023-03-30T07:27:50.189Z,7.13
2023-03-30T07:30:22.851Z,6.37
2023-03-30T07:32:56.179Z,5.00
2023-03-30T07:35:27.258Z,7.53
2023-03-30T07:38:03.185Z,9.53
2023-03-30T07:40:31.263Z,5.73
2023-03-30T07:43:02.618Z,7.27
2023-03-30T07:45:33.831Z,5.33
2023-03-30T07:48:04.908Z,6.17
2023-03-30T07:50:35.941Z,5.00
2023-03-30T07:53:06.720Z,5.37
2023-03-30T07:55:37.776Z,7.23
2023-03-30T07:58:08.877Z,7.60
2023-03-30T08:00:40.762Z,6.67
2023-03-30T08:03:12.564Z,4.13
2023-03-30T08:05:43.953Z,9.50
2023-03-30T08:08:15.052Z,6.50
2023-03-30T08:10:47.110Z,6.30
2023-03-30T08:13:20.586Z,8.23
2023-03-30T08:15:52.868Z,6.33
2023-03-30T08:18:24.094Z,4.13
2023-03-30T08:20:56.854Z,9.53
2023-03-30T08:23:28.192Z,6.20
2023-03-30T08:26:00.852Z,5.30
2023-03-30T08:28:34.610Z,10.43
2023-03-30T08:31:10.991Z,4.90
2023-03-30T08:33:42.223Z,2.97
2023-03-30T08:36:13.947Z,4.67
2023-03-30T08:38:46.420Z,8.40
2023-03-30T08:41:37.057Z,8.00
2023-03-30T08:46:49.017Z,5.40
2023-03-30T08:49:22.262Z,9.73
2023-03-30T08:51:55.955Z,4.00
2023-03-30T08:54:28.476Z,7.40
2023-03-30T08:57:05.204Z,8.83
2023-03-30T08:59:40.789Z,6.90
2023-03-30T09:02:18.379Z,5.00
2023-03-30T09:04:59.205Z,2.80
2023-03-30T09:07:33.244Z,4.17
2023-03-30T09:10:04.785Z,6.70
2023-03-30T09:12:40.422Z,7.10
2023-03-30T09:15:15.254Z,4.43
2023-03-30T09:17:49.688Z,4.57
2023-03-30T09:20:24.411Z,5.13
2023-03-30T09:22:57.059Z,10.90
2023-03-30T09:25:31.248Z,9.13
2023-03-30T09:28:07.072Z,6.00
2023-03-30T09:30:41.288Z,6.77
2023-03-30T09:33:18.804Z,5.50
2023-03-30T09:35:54.697Z,7.00
2023-03-30T09:38:25.744Z,4.67
2023-03-30T09:41:09.854Z,9.53
2023-03-30T09:43:44.392Z,9.97
2023-03-30T09:46:16.627Z,4.33
2023-03-30T09:48:49.133Z,3.53
2023-03-30T09:51:23.574Z,7.10
2023-03-30T09:53:57.336Z,6.97
2023-03-30T09:56:47.936Z,4.30
2023-03-30T09:59:32.015Z,5.90
2023-03-30T10:02:19.253Z,5.70
2023-03-30T10:05:02.486Z,5.87
2023-03-30T10:07:38.049Z,4.27
2023-03-30T10:10:24.740Z,6.13
2023-03-30T10:12:58.801Z,5.67
2023-03-30T10:15:31.843Z,4.97
2023-03-30T10:18:07.016Z,2.63
2023-03-30T10:20:39.798Z,3.87
2023-03-30T10:23:17.607Z,6.13
2023-03-30T10:25:52.283Z,4.60
2023-03-30T10:31:06.393Z,6.17
2023-03-30T10:33:43.920Z,3.03
2023-03-30T10:36:17.411Z,7.23
2023-03-30T10:38:48.882Z,5.20
2023-03-30T10:41:23.057Z,5.73
2023-03-30T10:43:54.442Z,10.63
2023-03-30T10:46:27.400Z,5.77
2023-03-30T10:49:05.660Z,4.90
2023-03-30T10:51:43.254Z,4.43
2023-03-30T10:54:18.009Z,4.70
2023-03-30T10:56:51.722Z,4.17
2023-03-30T10:59:37.957Z,7.27
2023-03-30T11:02:22.582Z,5.57
2023-03-30T11:07:37.567Z,5.20
2023-03-30T11:10:13.144Z,5.80
2023-03-30T11:12:46.837Z,4.67
2023-03-30T11:15:21.410Z,5.00
2023-03-30T11:17:57.541Z,5.30
2023-03-30T11:20:31.485Z,5.27
2023-03-30T11:23:07.596Z,1.83
2023-03-30T11:25:41.628Z,8.37
2023-03-30T11:28:17.766Z,3.63
2023-03-30T11:30:50.566Z,6.60
2023-03-30T11:33:25.982Z,5.53
2023-03-30T11:36:00.254Z,3.53
2023-03-30T11:38:36.255Z,5.73
2023-03-30T11:41:11.851Z,3.97
2023-03-30T11:43:43.036Z,3.70
2023-03-30T11:46:16.829Z,5.97
2023-03-30T11:49:11.463Z,4.97
2023-03-30T11:51:51.178Z,5.47
2023-03-30T11:55:04.183Z,3.67
2023-03-30T11:57:42.620Z,2.30
2023-03-30T12:00:34.781Z,6.00
2023-03-30T12:03:20.209Z,7.87
2023-03-30T12:05:53.952Z,7.47
2023-03-30T12:08:33.818Z,5.17
2023-03-30T12:13:51.194Z,6.87
2023-03-30T12:16:21.239Z,3.47
2023-03-30T12:18:58.941Z,3.93
2023-03-30T12:21:34.271Z,5.17
2023-03-30T12:24:09.518Z,4.13
2023-03-30T12:26:42.555Z,6.57
2023-03-30T12:31:55.985Z,5.17
2023-03-30T12:34:28.274Z,5.10
2023-03-30T12:37:04.883Z,4.10
2023-03-30T12:39:40.736Z,5.00
2023-03-30T12:44:55.473Z,4.03
2023-03-30T12:47:35.398Z,4.53
2023-03-30T12:50:22.205Z,3.93
2023-03-30T12:52:58.180Z,5.07
2023-03-30T12:55:38.599Z,10.43
2023-03-30T12:58:28.664Z,4.07
2023-03-30T13:01:23.432Z,3.73
2023-03-30T13:03:55.479Z,7.33
2023-03-30T13:06:29.891Z,4.00
2023-03-30T13:11:50.194Z,3.83
2023-03-30T13:14:28.996Z,4.55
2023-03-30T13:17:19.895Z,7.15
2023-03-30T13:20:15.433Z,5.80
2023-03-30T13:22:39.107Z,6.97
2023-03-30T13:25:30.520Z,3.72
2023-03-30T13:28:01.930Z,4.53
2023-03-30T13:33:17.044Z,6.28
2023-03-30T13:36:03.801Z,7.73
2023-03-30T13:38:43.087Z,3.55
2023-03-30T13:41:24.336Z,7.53
2023-03-30T13:44:05.729Z,5.23
2023-03-30T13:49:24.136Z,6.87
2023-03-30T13:51:57.281Z,3.27
2023-03-30T13:54:30.928Z,5.17
2023-03-30T13:57:05.408Z,5.00
2023-03-30T13:59:39.526Z,4.60
2023-03-30T14:02:14.873Z,3.40
2023-03-30T14:04:45.763Z,6.80
2023-03-30T14:07:19.029Z,3.10
2023-03-30T14:10:07.520Z,5.97
2023-03-30T14:12:40.910Z,6.80
2023-03-30T14:15:22.098Z,8.80
2023-03-30T14:17:55.914Z,4.87
2023-03-30T14:20:47.816Z,8.07
2023-03-30T14:23:22.157Z,4.60
2023-03-30T14:25:55.616Z,5.43
2023-03-30T14:28:27.955Z,4.13
2023-03-30T14:31:02.410Z,5.50
2023-03-30T14:33:33.840Z,5.90
2023-03-30T14:36:05.553Z,6.53
2023-03-30T14:38:40.046Z,5.07
2023-03-30T14:41:12.318Z,7.13
2023-03-30T14:43:45.031Z,4.60
2023-03-30T14:46:16.543Z,8.03
2023-03-30T14:51:30.539Z,6.03
2023-03-30T14:54:01.351Z,3.97
2023-03-30T14:56:33.055Z,6.10
2023-03-30T14:59:04.812Z,4.25
2023-03-30T15:01:36.338Z,6.43
2023-03-30T15:04:09.403Z,3.55
2023-03-30T15:06:41.390Z,5.45
2023-03-30T15:09:17.016Z,5.53
2023-03-30T15:11:50.584Z,6.87
2023-03-30T15:14:23.946Z,4.17
2023-03-30T15:16:57.993Z,5.33
2023-03-30T15:19:32.050Z,4.80
2023-03-30T15:22:04.817Z,4.93
2023-03-30T15:24:38.355Z,6.03
2023-03-30T15:27:11.892Z,3.70
2023-03-30T15:29:45.054Z,5.00
2023-03-30T15:32:19.530Z,4.97
2023-03-30T15:35:08.516Z,4.67
2023-03-30T15:37:39.720Z,3.47
2023-03-30T15:40:30.647Z,8.37
2023-03-30T15:43:20.330Z,5.80
2023-03-30T15:45:54.314Z,6.13
2023-03-30T15:48:29.073Z,4.20
2023-03-30T15:53:46.566Z,3.20
2023-03-30T15:56:21.996Z,5.83
2023-03-30T15:58:53.530Z,5.57
2023-03-30T16:01:24.191Z,6.80
2023-03-30T16:03:58.425Z,5.70
2023-03-30T16:06:29.272Z,5.03
2023-03-30T16:09:00.010Z,4.33
2023-03-30T16:11:32.262Z,4.50
2023-03-30T16:14:05.023Z,8.93
2023-03-30T16:16:36.068Z,5.43
2023-03-30T16:19:09.456Z,8.13
2023-03-30T16:21:40.042Z,5.50
2023-03-30T16:24:11.086Z,4.43
2023-03-30T16:26:41.741Z,6.47
2023-03-30T16:29:18.555Z,8.17
2023-03-30T16:31:49.436Z,6.30
2023-03-30T16:36:58.838Z,6.17
2023-03-30T16:39:30.861Z,10.47
2023-03-30T16:42:01.852Z,5.70
2023-03-30T16:44:32.551Z,6.30
2023-03-30T16:47:03.139Z,4.50
2023-03-30T16:49:33.765Z,3.90
2023-03-30T16:52:06.371Z,5.03
2023-03-30T16:54:36.946Z,5.83
2023-03-30T16:57:09.916Z,5.60
2023-03-30T16:59:39.819Z,4.47
2023-03-30T17:02:17.477Z,4.13
2023-03-30T17:04:46.354Z,8.20
2023-03-30T17:07:17.762Z,4.63
2023-03-30T17:09:48.589Z,4.60
2023-03-30T17:12:19.470Z,9.47
2023-03-30T17:14:50.315Z,4.77
2023-03-30T17:17:21.798Z,5.07
2023-03-30T17:19:52.573Z,7.50
2023-03-30T17:22:23.349Z,9.40
2023-03-30T17:24:54.331Z,6.33
2023-03-30T17:27:26.113Z,5.47
2023-03-30T17:29:56.904Z,5.40
2023-03-30T17:32:28.298Z,6.50
2023-03-30T17:34:59.004Z,6.63
2023-03-30T17:37:29.663Z,6.67
2023-03-30T17:40:00.414Z,5.77
2023-03-30T17:42:31.013Z,7.33
2023-03-30T17:45:01.808Z,4.53
2023-03-30T17:47:32.423Z,9.30
2023-03-30T17:50:04.195Z,4.33
2023-03-30T17:52:34.818Z,8.80
2023-03-30T17:55:05.845Z,5.40
2023-03-30T17:57:36.596Z,6.67
2023-03-30T18:00:15.223Z,7.00
2023-03-30T18:02:46.130Z,6.87
2023-03-30T18:05:17.446Z,4.07
2023-03-30T18:07:48.443Z,7.97
2023-03-30T18:10:25.720Z,6.87
2023-03-30T18:12:57.963Z,6.50
2023-03-30T18:15:29.664Z,9.27
2023-03-30T18:18:01.874Z,5.93
2023-03-30T18:20:35.761Z,6.73
2023-03-30T18:23:06.583Z,3.87
2023-03-30T18:25:37.284Z,13.50
2023-03-30T18:28:12.369Z,8.67
2023-03-30T18:30:43.072Z,8.10
2023-03-30T18:33:15.446Z,5.83
2023-03-30T18:35:48.236Z,6.73
2023-03-30T18:38:21.678Z,6.70
2023-03-30T18:40:53.712Z,5.80
2023-03-30T18:43:24.513Z,6.07
2023-03-30T18:45:58.831Z,2.80
2023-03-30T18:48:29.123Z,8.03
2023-03-30T18:51:00.510Z,7.83
2023-03-30T18:53:32.418Z,6.53
2023-03-30T18:56:03.839Z,4.47
2023-03-30T18:58:37.464Z,7.83
2023-03-30T19:01:08.821Z,6.97
2023-03-30T19:03:40.900Z,4.40
2023-03-30T19:06:16.899Z,9.57
2023-03-30T19:08:48.145Z,5.77
2023-03-30T19:11:22.371Z,6.93
2023-03-30T19:13:53.542Z,3.80
2023-03-30T19:16:24.316Z,8.17
2023-03-30T19:18:55.031Z,6.43
2023-03-30T19:21:26.401Z,6.70
2023-03-30T19:23:57.311Z,7.53
2023-03-30T19:26:28.796Z,4.73
2023-03-30T19:28:59.540Z,6.87
2023-03-30T19:31:30.601Z,6.80
2023-03-30T19:34:02.635Z,13.63
2023-03-30T19:36:33.422Z,7.53
2023-03-30T19:39:04.289Z,5.73
2023-03-30T19:41:36.249Z,5.80
2023-03-30T19:44:07.439Z,4.53
2023-03-30T19:46:39.050Z,3.57
2023-03-30T19:49:09.808Z,9.17
2023-03-30T19:54:24.832Z,11.93
2023-03-30T19:56:55.436Z,5.90
2023-03-30T19:59:27.855Z,4.70
2023-03-30T20:01:58.714Z,6.87
2023-03-30T20:04:29.411Z,6.20
2023-03-30T20:07:02.302Z,7.23
2023-03-30T20:09:33.255Z,4.93
2023-03-30T20:12:05.156Z,5.73
2023-03-30T20:14:36.223Z,6.73
2023-03-30T20:17:08.446Z,10.03
2023-03-30T20:19:41.044Z,7.57
2023-03-30T20:22:12.759Z,5.73
2023-03-30T20:24:44.799Z,10.47
2023-03-30T20:27:15.665Z,7.20
2023-03-30T20:29:46.465Z,5.67
2023-03-30T20:32:17.546Z,7.53
2023-03-30T20:34:49.556Z,8.43
2023-03-30T20:37:20.317Z,9.87
2023-03-30T20:39:50.931Z,5.30
2023-03-30T20:42:23.965Z,8.60
2023-03-30T20:44:55.895Z,10.10
2023-03-30T20:47:28.463Z,8.07
2023-03-30T20:49:59.453Z,9.67
2023-03-30T20:52:30.736Z,6.50
2023-03-30T20:55:01.454Z,9.17
2023-03-30T20:57:32.173Z,5.70
2023-03-30T21:00:04.426Z,7.00
2023-03-30T21:02:35.270Z,9.37
2023-03-30T21:05:06.775Z,7.37
2023-03-30T21:07:38.402Z,4.03
2023-03-30T21:10:11.421Z,7.23
2023-03-30T21:12:42.009Z,7.53
2023-03-30T21:15:15.295Z,8.20
2023-03-30T21:17:46.041Z,6.70
2023-03-30T21:20:17.246Z,7.50
2023-03-30T21:22:47.807Z,6.53
2023-03-30T21:25:18.912Z,8.00
2023-03-30T21:27:49.510Z,8.77
2023-03-30T21:30:20.502Z,6.60
2023-03-30T21:32:51.150Z,5.17
2023-03-30T21:35:21.810Z,8.13
2023-03-30T21:37:52.385Z,9.50
2023-03-30T21:40:23.250Z,5.53
2023-03-30T21:42:53.909Z,7.67
2023-03-30T21:45:24.919Z,7.17
2023-03-30T21:47:55.646Z,6.20
2023-03-30T21:50:26.471Z,9.03
2023-03-30T21:53:00.458Z,7.07
2023-03-30T21:55:31.079Z,13.27
2023-03-30T21:58:01.801Z,9.43
2023-03-30T22:00:32.605Z,9.33
2023-03-30T22:03:03.356Z,8.40
2023-03-30T22:05:33.964Z,8.50
2023-03-30T22:08:04.638Z,6.27
2023-03-30T22:10:35.688Z,6.10
2023-03-30T22:13:06.735Z,8.37
2023-03-30T22:15:37.442Z,5.80
2023-03-30T22:18:08.263Z,6.90
2023-03-30T22:20:41.494Z,10.20
2023-03-30T22:23:12.282Z,6.90
2023-03-30T22:25:42.846Z,6.63
2023-03-30T22:28:13.506Z,6.07
2023-03-30T22:30:45.409Z,7.50
2023-03-30T22:33:17.578Z,6.10
2023-03-30T22:35:49.511Z,7.83
2023-03-30T22:38:20.281Z,8.77
2023-03-30T22:40:51.976Z,8.57
2023-03-30T22:43:22.593Z,11.03
2023-03-30T22:45:53.269Z,7.70
2023-03-30T22:48:23.993Z,10.07
2023-03-30T22:50:54.570Z,5.97
2023-03-30T22:53:25.384Z,6.87
2023-03-30T22:55:56.033Z,13.50
2023-03-30T22:58:26.865Z,8.27
2023-03-30T23:01:02.781Z,9.25
2023-03-30T23:03:33.770Z,10.00
2023-03-30T23:06:04.785Z,8.40
2023-03-30T23:08:35.740Z,7.70
2023-03-30T23:11:06.573Z,7.00
2023-03-30T23:13:37.804Z,8.07
2023-03-30T23:16:10.900Z,8.87
2023-03-30T23:18:42.878Z,8.03
2023-03-30T23:21:14.235Z,6.03
2023-03-30T23:23:50.989Z,11.77
2023-03-30T23:26:21.600Z,7.20
2023-03-30T23:28:52.240Z,9.53
2023-03-30T23:31:23.520Z,6.93
2023-03-30T23:33:54.768Z,8.67
2023-03-30T23:36:27.279Z,9.43
2023-03-30T23:38:58.282Z,10.70
2023-03-30T23:41:29.149Z,12.60
2023-03-30T23:43:59.937Z,6.87
2023-03-30T23:46:30.922Z,6.80
2023-03-30T23:49:03.491Z,11.77
2023-03-30T23:51:34.704Z,11.63
2023-03-30T23:54:07.179Z,5.97
2023-03-30T23:56:41.082Z,7.27
2023-03-30T23:59:12.477Z,7.43
